Hurdland, MO (63547)

6:41 AM CDT on October 25, 2014 (GMT -0500)
La Plata | Change Station
CLOSE
Current Station
Personal Weather Station
Location: La Plata, MO
Elevation: 928 ft
Nearby Weather Stations
Active Advisory: Dense Fog Advisory

Elev 928 ft 40.03 °N, 92.48 °W | Updated 4 seconds ago

Fog
Fog
54.1 °F
Feels Like 54.1 °F
N
0.0
Wind Variable Wind from North
Gusts 0.0 mph

Today
High -- | Low -- °F
--% Chance of Precip.
Yesterday
High -- | Low -- °F
Precip. -- in
7:30 AM 6:15 PM
Waxing Crescent, 3% visible
Pressure 30.02 in
Visibility 0.2 miles
Clouds
Dew Point 53 °F
Humidity 97%
Rainfall 0.00 in
Snow Depth Not available.
UV Not available.
Pollen 2.00 out of 12
Air Quality Not available.
Flu Activity No Activity
METAR KIRK 251055Z AUTO 28004KT 1/4SM FG VV001 12/12 A3002

More Conditions Fewer Conditions

Pressure 30.02 in
Visibility 0.2 miles
Clouds
Dew Point 53 °F
Humidity 97%
Rainfall 0.00 in
Snow Depth Not available.
UV Not available.
Pollen 2.00 out of 12
Air Quality Not available.
Flu Activity No Activity
METAR KIRK 251055Z AUTO 28004KT 1/4SM FG VV001 12/12 A3002

More Conditions Fewer Conditions

10-Day Weather Forecast

Almanac

Astronomy

Oct. 25, 2014 Rise Set
Actual Time 7:30 AM CDT 6:15 PM CDT
Civil Twilight 7:02 AM CDT 6:43 PM CDT
Nautical Twilight 6:31 AM CDT 7:14 PM CDT
Astronomical Twilight 5:59 AM CDT 7:46 PM CDT
Moon 9:10 AM CDT 7:38 PM CDT
Length of Visible Light 11h 40m
Length of Day
10h 44m
Tomorrow will be 2m 26s shorter.
Waxing Crescent, 3% of the Moon is Illuminated
Today
Waxing Crescent
Oct 30
First Quarter
Nov 6
Full
Nov 14
Last Quarter
Nov 22
New

Today's Extremes

State Highs State Lows

Community

WunderPhotos

Upload Photos

1,764,812 photos uploaded!

Nearby

Snow Depth

Station Depth Elevation
No new snow has been reported.

Earthquake Activity

City Distance Mag. Time & Date
No recent earthquake activity has been reported nearby.
Minimum magnitude displayed is 2.5.

Coastal Water Temperatures

Place Temperature
No Stations Reporting

Nearby Weather Stations